Time;durP1;ratioP1;P1;durP2;ratioP2;P2;SDS_P1;SDS_P2;PMS_P1;PMS_P2;Temp;Humidity;BMP_temperature;BMP_pressure;BME280_temperature;BME280_humidity;BME280_pressure;Samples;Min_cycle;Max_cycle;Signal;HPM_P1;HPM_P2
2021/07/09 00:02:43;;;;;;;22.73;16.67;;;16.20;99.00;;;;;;3586845;40;20044;-83
2021/07/09 00:05:09;;;;;;;27.50;18.08;;;16.20;99.00;;;;;;3588083;40;20052;-84
2021/07/09 00:07:36;;;;;;;26.98;19.45;;;16.20;99.00;;;;;;3583297;40;20050;-83
2021/07/09 00:10:02;;;;;;;29.00;19.83;;;16.20;99.00;;;;;;3580531;40;20381;-84
2021/07/09 00:12:28;;;;;;;28.17;19.30;;;16.20;99.10;;;;;;3591162;40;20410;-82
2021/07/09 00:14:54;;;;;;;22.35;17.17;;;16.10;99.10;;;;;;3577655;40;20047;-84
2021/07/09 00:17:20;;;;;;;28.75;18.63;;;16.10;99.10;;;;;;3585148;40;20037;-83
2021/07/09 00:19:46;;;;;;;24.33;17.80;;;16.10;99.00;;;;;;3587170;40;20508;-83
2021/07/09 00:22:11;;;;;;;28.10;19.50;;;16.10;99.10;;;;;;3588054;40;20048;-83
2021/07/09 00:24:38;;;;;;;26.73;18.75;;;16.10;99.10;;;;;;3583227;40;20045;-84
2021/07/09 00:27:04;;;;;;;26.08;18.60;;;16.00;99.10;;;;;;3577901;40;20053;-83
2021/07/09 00:29:30;;;;;;;25.90;19.10;;;16.00;99.20;;;;;;3576522;40;20040;-83
2021/07/09 00:31:56;;;;;;;26.95;20.02;;;15.90;99.20;;;;;;3586756;40;20044;-83
2021/07/09 00:34:22;;;;;;;26.80;18.15;;;15.90;99.20;;;;;;3587735;40;20037;-83
2021/07/09 00:36:48;;;;;;;24.92;17.83;;;15.90;99.30;;;;;;3578359;40;20144;-83
2021/07/09 00:39:14;;;;;;;26.63;18.45;;;15.90;99.30;;;;;;3595377;40;20044;-83
2021/07/09 00:41:42;;;;;;;33.13;20.45;;;15.80;99.20;;;;;;3585386;40;20072;-83
2021/07/09 00:44:10;;;;;;;28.25;19.88;;;15.80;99.20;;;;;;3586819;40;20436;-83
2021/07/09 00:46:38;;;;;;;27.15;19.95;;;15.80;99.20;;;;;;3587547;40;20346;-84
2021/07/09 00:49:05;;;;;;;28.85;18.95;;;15.70;99.20;;;;;;3594932;40;20130;-82
2021/07/09 00:51:32;;;;;;;29.83;20.90;;;15.70;99.20;;;;;;3588006;40;20041;-82
2021/07/09 00:53:58;;;;;;;28.08;19.25;;;15.70;99.40;;;;;;3584701;40;20415;-82
2021/07/09 00:56:24;;;;;;;26.27;18.73;;;15.70;99.40;;;;;;3583093;40;20044;-83
2021/07/09 00:58:52;;;;;;;22.95;16.48;;;15.70;99.40;;;;;;3586814;40;20044;-83
2021/07/09 01:01:18;;;;;;;25.35;18.35;;;15.60;99.30;;;;;;3581935;40;20045;-82
2021/07/09 01:03:46;;;;;;;24.92;18.60;;;15.60;99.30;;;;;;3576291;40;20099;-82
2021/07/09 01:06:14;;;;;;;25.88;19.42;;;15.60;99.30;;;;;;3577449;40;20037;-82
2021/07/09 01:08:40;;;;;;;26.55;18.55;;;15.60;99.30;;;;;;3582470;40;20348;-82
2021/07/09 01:11:07;;;;;;;28.73;18.88;;;15.50;99.40;;;;;;3593827;40;20041;-82
2021/07/09 01:13:33;;;;;;;27.85;18.65;;;15.50;99.40;;;;;;3584820;40;20052;-83
2021/07/09 01:15:59;;;;;;;27.63;18.98;;;15.50;99.40;;;;;;3586464;40;20066;-82
2021/07/09 01:18:25;;;;;;;31.20;19.88;;;15.50;99.40;;;;;;3583733;40;20060;-82
2021/07/09 01:20:51;;;;;;;27.05;19.60;;;15.50;99.40;;;;;;3585296;40;20045;-87
2021/07/09 01:23:20;;;;;;;30.40;19.58;;;15.40;99.50;;;;;;3587282;40;20040;-83
2021/07/09 01:25:46;;;;;;;34.50;23.40;;;15.40;99.50;;;;;;3590368;40;20053;-82
2021/07/09 01:28:11;;;;;;;35.85;23.77;;;15.30;99.60;;;;;;3586643;40;20041;-82
2021/07/09 01:30:38;;;;;;;32.20;22.15;;;15.30;99.60;;;;;;3584329;40;20044;-83
2021/07/09 01:33:04;;;;;;;34.25;23.10;;;15.40;99.60;;;;;;3576276;40;20051;-83
2021/07/09 01:35:30;;;;;;;44.00;27.30;;;15.30;99.60;;;;;;3578256;40;20045;-83
2021/07/09 01:38:00;;;;;;;39.50;25.90;;;15.30;99.70;;;;;;3587470;40;20036;-83
2021/07/09 01:40:27;;;;;;;35.75;24.60;;;15.30;99.70;;;;;;3579562;40;20320;-82
2021/07/09 01:42:53;;;;;;;44.03;28.63;;;15.30;99.70;;;;;;3584529;40;20037;-83
2021/07/09 01:45:20;;;;;;;39.60;27.55;;;15.20;99.90;;;;;;3593430;40;20122;-82
2021/07/09 01:47:46;;;;;;;43.75;27.42;;;15.20;99.80;;;;;;3577287;40;20048;-82
2021/07/09 01:50:12;;;;;;;44.78;27.17;;;15.20;99.80;;;;;;3577610;40;20243;-83
2021/07/09 01:52:38;;;;;;;39.15;26.98;;;15.20;99.80;;;;;;3577015;40;20045;-82
2021/07/09 01:55:06;;;;;;;45.22;27.65;;;15.20;99.90;;;;;;3587504;40;20200;-82
2021/07/09 01:57:32;;;;;;;47.03;28.40;;;15.20;99.90;;;;;;3586860;40;20032;-83
2021/07/09 01:59:59;;;;;;;49.72;28.52;;;15.10;99.90;;;;;;3587005;40;20347;-82
2021/07/09 02:02:26;;;;;;;46.05;27.75;;;15.10;99.90;;;;;;3585959;40;20051;-82
2021/07/09 02:04:54;;;;;;;42.30;27.75;;;15.20;99.90;;;;;;3586606;40;20524;-82
2021/07/09 02:07:22;;;;;;;50.00;30.10;;;15.10;99.90;;;;;;3586528;40;20057;-83
2021/07/09 02:09:51;;;;;;;45.75;29.00;;;15.10;99.90;;;;;;3585920;40;20602;-82
2021/07/09 02:12:19;;;;;;;50.25;29.98;;;15.10;99.90;;;;;;3583829;40;20332;-82
2021/07/09 02:14:46;;;;;;;53.15;28.42;;;15.10;99.90;;;;;;3582650;40;20036;-81
2021/07/09 02:17:14;;;;;;;43.53;27.27;;;15.10;99.90;;;;;;3586453;40;20121;-83
2021/07/09 02:19:41;;;;;;;42.47;27.60;;;15.10;99.90;;;;;;3585593;40;20133;-83
2021/07/09 02:22:09;;;;;;;39.67;26.42;;;15.00;99.90;;;;;;3586808;40;20126;-82
2021/07/09 02:24:36;;;;;;;52.95;29.83;;;15.00;99.90;;;;;;3594115;40;20051;-82
2021/07/09 02:27:03;;;;;;;46.53;28.98;;;15.00;99.90;;;;;;3587158;40;20036;-82
2021/07/09 02:29:30;;;;;;;46.47;28.85;;;15.00;99.90;;;;;;3586393;40;20032;-82
2021/07/09 02:31:56;;;;;;;39.25;28.88;;;15.00;99.90;;;;;;3577090;40;20052;-82
2021/07/09 02:34:22;;;;;;;42.38;28.10;;;15.00;99.90;;;;;;3577062;40;20065;-82
2021/07/09 02:36:48;;;;;;;40.78;26.42;;;15.00;99.90;;;;;;3577125;40;20048;-82
2021/07/09 02:39:14;;;;;;;43.60;27.58;;;14.90;99.90;;;;;;3581611;40;20051;-82
2021/07/09 02:41:40;;;;;;;42.97;24.60;;;14.90;99.90;;;;;;3575913;40;20073;-82
2021/07/09 02:44:06;;;;;;;41.28;26.90;;;14.90;99.90;;;;;;3579885;40;20124;-82
2021/07/09 02:46:32;;;;;;;44.10;27.63;;;14.90;99.90;;;;;;3586852;40;20052;-82
2021/07/09 02:48:57;;;;;;;34.97;24.15;;;14.90;99.90;;;;;;3594149;40;20053;-82
2021/07/09 02:51:23;;;;;;;45.55;28.30;;;14.90;99.90;;;;;;3587040;40;20048;-82
2021/07/09 02:53:49;;;;;;;38.83;25.42;;;14.90;99.90;;;;;;3584956;40;20048;-82
2021/07/09 02:56:15;;;;;;;38.80;25.80;;;14.80;99.90;;;;;;3594615;40;20052;-81
2021/07/09 02:58:40;;;;;;;39.45;24.30;;;14.80;99.90;;;;;;3586876;40;20130;-81
2021/07/09 03:01:06;;;;;;;44.47;27.58;;;14.80;99.90;;;;;;3586824;40;20129;-82
2021/07/09 03:03:32;;;;;;;41.92;26.50;;;14.80;99.90;;;;;;3585892;40;20064;-81
2021/07/09 03:05:58;;;;;;;47.97;26.70;;;14.80;99.90;;;;;;3584955;40;20044;-82
2021/07/09 03:08:24;;;;;;;41.45;25.95;;;14.80;99.90;;;;;;3587081;40;20663;-82
2021/07/09 03:10:50;;;;;;;44.25;26.10;;;14.80;99.90;;;;;;3583950;40;20055;-81
2021/07/09 03:13:16;;;;;;;40.10;24.38;;;14.80;99.90;;;;;;3585911;40;20315;-82
2021/07/09 03:15:42;;;;;;;40.85;25.10;;;14.70;99.90;;;;;;3586871;40;20239;-82
2021/07/09 03:18:08;;;;;;;35.85;25.67;;;14.80;99.90;;;;;;3583494;40;20378;-82
2021/07/09 03:20:34;;;;;;;38.20;24.98;;;14.70;99.90;;;;;;3588338;40;20055;-82
2021/07/09 03:23:00;;;;;;;40.05;26.20;;;14.80;99.90;;;;;;3587189;40;20040;-82
2021/07/09 03:25:26;;;;;;;45.15;26.27;;;14.70;99.90;;;;;;3587227;40;20044;-82
2021/07/09 03:27:51;;;;;;;42.35;25.88;;;14.70;99.90;;;;;;3578823;40;20055;-81
2021/07/09 03:30:17;;;;;;;40.83;24.77;;;14.70;99.90;;;;;;3576919;40;20073;-82
2021/07/09 03:32:43;;;;;;;36.80;23.30;;;14.70;99.90;;;;;;3577988;40;20072;-82
2021/07/09 03:35:11;;;;;;;41.30;24.83;;;14.80;99.90;;;;;;3578090;40;20048;-82
2021/07/09 03:37:37;;;;;;;39.83;23.20;;;14.80;99.90;;;;;;3578054;40;20328;-82
2021/07/09 03:40:08;;;;;;;43.05;25.17;;;14.80;99.90;;;;;;3582085;40;20044;-82
2021/07/09 03:42:34;;;;;;;42.92;25.10;;;14.80;99.90;;;;;;3588008;40;20358;-81
2021/07/09 03:45:00;;;;;;;50.15;28.05;;;14.80;99.90;;;;;;3583090;40;20045;-82
2021/07/09 03:47:25;;;;;;;48.22;26.50;;;14.80;99.90;;;;;;3578078;40;20052;-82
2021/07/09 03:49:51;;;;;;;46.05;23.23;;;14.80;99.90;;;;;;3577926;40;20067;-81
2021/07/09 03:52:17;;;;;;;39.78;24.08;;;14.80;99.90;;;;;;3579126;40;20120;-82
2021/07/09 03:54:43;;;;;;;46.17;25.88;;;14.80;99.90;;;;;;3578740;40;20341;-83
2021/07/09 03:57:09;;;;;;;40.50;25.52;;;14.90;99.90;;;;;;3583183;40;20032;-82
2021/07/09 03:59:35;;;;;;;36.28;23.52;;;14.90;99.90;;;;;;3580483;40;20041;-82
2021/07/09 04:02:01;;;;;;;43.13;23.85;;;14.90;99.90;;;;;;3568815;40;20714;-82
2021/07/09 04:04:27;;;;;;;36.80;23.20;;;15.00;99.90;;;;;;3581895;40;20036;-82
2021/07/09 04:06:52;;;;;;;31.55;22.00;;;15.00;99.90;;;;;;3595359;40;20047;-82
2021/07/09 04:09:19;;;;;;;36.15;23.48;;;15.10;99.90;;;;;;3587016;40;20047;-82
2021/07/09 04:11:45;;;;;;;36.65;22.40;;;15.10;99.90;;;;;;3592039;40;20052;-82
2021/07/09 04:14:10;;;;;;;35.05;21.67;;;15.10;99.90;;;;;;3578360;40;20130;-81
2021/07/09 04:16:36;;;;;;;38.33;23.33;;;15.20;99.90;;;;;;3577029;40;20052;-82
2021/07/09 04:19:02;;;;;;;33.13;20.77;;;15.30;99.90;;;;;;3586193;40;20044;-81
2021/07/09 04:21:28;;;;;;;34.83;22.58;;;15.30;99.90;;;;;;3587948;40;20036;-82
2021/07/09 04:23:54;;;;;;;32.30;21.50;;;15.30;99.90;;;;;;3586452;40;20052;-82
2021/07/09 04:26:20;;;;;;;31.73;21.45;;;15.40;99.90;;;;;;3587964;40;20044;-82
2021/07/09 04:28:46;;;;;;;30.42;19.95;;;15.40;99.90;;;;;;3587044;40;20048;-82
2021/07/09 04:31:12;;;;;;;31.15;19.85;;;15.50;99.90;;;;;;3586981;40;20066;-82
2021/07/09 04:33:39;;;;;;;27.00;19.00;;;15.50;99.90;;;;;;3577612;40;20050;-81
2021/07/09 04:36:04;;;;;;;30.50;18.30;;;15.60;99.90;;;;;;3587803;40;20067;-82
2021/07/09 04:38:30;;;;;;;29.95;20.58;;;15.60;99.90;;;;;;3587624;40;20375;-82
2021/07/09 04:40:56;;;;;;;27.10;16.98;;;15.70;99.90;;;;;;3595092;40;20076;-82
2021/07/09 04:43:22;;;;;;;24.17;17.23;;;15.70;99.90;;;;;;3593864;40;20048;-82
2021/07/09 04:45:48;;;;;;;22.90;17.67;;;15.80;99.90;;;;;;3587612;40;20044;-82
2021/07/09 04:48:15;;;;;;;20.30;15.68;;;15.90;99.90;;;;;;3587912;40;20335;-82
2021/07/09 04:50:41;;;;;;;23.25;16.45;;;15.90;99.90;;;;;;3587570;40;20052;-82
2021/07/09 04:53:06;;;;;;;27.27;18.33;;;16.00;99.90;;;;;;3593032;40;20044;-82
2021/07/09 04:55:33;;;;;;;21.80;16.75;;;16.10;99.90;;;;;;3584825;40;20048;-82
2021/07/09 04:57:58;;;;;;;21.73;16.92;;;16.20;99.90;;;;;;3578832;40;20099;-82
2021/07/09 05:00:24;;;;;;;23.15;16.75;;;16.20;99.90;;;;;;3575905;40;20102;-82
2021/07/09 05:02:50;;;;;;;20.70;16.35;;;16.30;99.90;;;;;;3582606;40;20045;-84
2021/07/09 05:05:17;;;;;;;17.67;14.35;;;16.40;99.90;;;;;;3584814;40;20044;-83
2021/07/09 05:07:43;;;;;;;23.27;15.48;;;16.40;99.90;;;;;;3585741;40;20339;-81
2021/07/09 05:10:10;;;;;;;20.92;15.43;;;16.40;99.90;;;;;;3586763;40;20056;-82
2021/07/09 05:12:36;;;;;;;18.75;14.85;;;16.40;99.90;;;;;;3582312;40;20360;-82
2021/07/09 05:15:03;;;;;;;21.73;14.82;;;16.40;99.90;;;;;;3582945;40;20099;-82
2021/07/09 05:17:28;;;;;;;19.95;15.18;;;16.50;99.90;;;;;;3582292;40;20043;-82
2021/07/09 05:19:55;;;;;;;19.35;14.77;;;16.50;99.90;;;;;;3583146;40;20076;-82
2021/07/09 05:22:22;;;;;;;20.75;14.77;;;16.50;99.90;;;;;;3583267;40;20052;-82
2021/07/09 05:24:52;;;;;;;19.52;14.43;;;16.50;99.90;;;;;;3583945;40;20357;-82
2021/07/09 05:27:18;;;;;;;18.25;13.73;;;16.50;99.90;;;;;;3583039;40;20222;-81
2021/07/09 05:29:44;;;;;;;21.23;13.80;;;16.60;99.90;;;;;;3575684;40;20036;-83
2021/07/09 05:32:09;;;;;;;17.02;14.68;;;16.60;99.90;;;;;;3575177;40;20044;-83
2021/07/09 05:34:36;;;;;;;18.42;16.00;;;16.60;99.90;;;;;;3566670;40;20041;-83
2021/07/09 05:37:02;;;;;;;17.17;13.23;;;16.60;99.90;;;;;;3584288;40;20055;-83
2021/07/09 05:39:28;;;;;;;21.08;13.13;;;16.60;99.90;;;;;;3585790;40;20220;-83
2021/07/09 05:41:54;;;;;;;16.73;12.95;;;16.70;99.90;;;;;;3586056;40;20047;-84
2021/07/09 05:44:20;;;;;;;20.45;14.13;;;16.70;99.90;;;;;;3584296;40;20041;-84
2021/07/09 05:46:46;;;;;;;17.02;13.55;;;16.70;99.90;;;;;;3583692;40;20057;-83
2021/07/09 05:49:13;;;;;;;17.02;13.82;;;16.70;99.90;;;;;;3581410;40;20044;-84
2021/07/09 05:51:39;;;;;;;18.20;14.07;;;16.80;99.90;;;;;;3583649;40;20313;-84
2021/07/09 05:54:05;;;;;;;15.60;13.40;;;16.70;99.90;;;;;;3580687;40;20370;-84
2021/07/09 05:56:30;;;;;;;17.27;12.45;;;16.80;99.90;;;;;;3592908;40;20044;-82
2021/07/09 05:58:56;;;;;;;15.18;12.63;;;16.80;99.90;;;;;;3581340;40;20041;-83
2021/07/09 06:01:22;;;;;;;14.30;12.15;;;16.70;99.90;;;;;;3585510;40;20047;-82
2021/07/09 06:03:48;;;;;;;15.90;12.55;;;16.70;99.90;;;;;;3585023;40;20043;-84
2021/07/09 06:06:14;;;;;;;14.98;12.48;;;16.80;99.90;;;;;;3585801;40;20044;-83
2021/07/09 06:08:40;;;;;;;12.27;10.90;;;16.80;99.90;;;;;;3574471;40;20248;-84
2021/07/09 06:11:06;;;;;;;14.93;11.82;;;16.80;99.90;;;;;;3581586;40;20052;-83
2021/07/09 06:13:32;;;;;;;13.93;11.80;;;16.80;99.90;;;;;;3584259;40;20500;-83
2021/07/09 06:15:58;;;;;;;14.32;11.52;;;16.80;99.90;;;;;;3583016;40;20051;-83
2021/07/09 06:18:24;;;;;;;11.63;9.70;;;16.80;99.90;;;;;;3584758;40;20048;-82
2021/07/09 06:20:50;;;;;;;11.90;10.07;;;16.80;99.90;;;;;;3575556;40;20040;-83
2021/07/09 06:23:16;;;;;;;13.32;10.02;;;16.80;99.90;;;;;;3585257;40;20158;-83
2021/07/09 06:25:42;;;;;;;11.27;9.95;;;16.90;99.90;;;;;;3582712;40;20239;-82
2021/07/09 06:28:08;;;;;;;17.10;11.35;;;16.90;99.90;;;;;;3584474;40;20092;-85
2021/07/09 06:30:34;;;;;;;12.93;11.10;;;16.90;99.90;;;;;;3579593;40;20051;-83
2021/07/09 06:33:00;;;;;;;11.15;10.05;;;16.90;99.90;;;;;;3585851;40;20060;-83
2021/07/09 06:35:29;;;;;;;12.75;9.85;;;16.90;99.90;;;;;;3584484;40;20231;-82
2021/07/09 06:37:56;;;;;;;13.18;9.65;;;16.90;99.90;;;;;;3585141;40;20047;-83
2021/07/09 06:40:22;;;;;;;11.38;9.75;;;16.90;99.90;;;;;;3575764;40;20044;-82
2021/07/09 06:42:48;;;;;;;13.13;10.07;;;17.00;99.90;;;;;;3581775;40;20232;-84
2021/07/09 06:45:14;;;;;;;13.02;10.50;;;17.10;99.90;;;;;;3583129;40;20040;-82
2021/07/09 06:47:40;;;;;;;14.27;9.93;;;17.20;99.90;;;;;;3582361;40;20044;-83
2021/07/09 06:50:06;;;;;;;10.35;9.30;;;17.20;99.90;;;;;;3583811;40;20141;-83
2021/07/09 06:52:32;;;;;;;13.50;9.15;;;17.30;99.90;;;;;;3581038;40;20044;-82
2021/07/09 06:54:58;;;;;;;9.15;7.07;;;17.40;99.90;;;;;;3582615;40;20063;-82
2021/07/09 06:57:24;;;;;;;8.73;7.00;;;17.60;99.80;;;;;;3583997;40;20352;-80
2021/07/09 06:59:50;;;;;;;8.15;6.82;;;17.70;99.50;;;;;;3584926;40;20033;-83
2021/07/09 07:02:16;;;;;;;9.38;7.68;;;17.80;99.50;;;;;;3584494;40;20036;-82
2021/07/09 07:04:42;;;;;;;9.27;6.90;;;17.90;99.70;;;;;;3583319;40;20040;-82
2021/07/09 07:07:08;;;;;;;7.60;6.80;;;18.10;99.40;;;;;;3583842;40;20063;-85
2021/07/09 07:09:33;;;;;;;11.95;6.90;;;18.30;98.90;;;;;;3577193;40;20043;-86
2021/07/09 07:12:02;;;;;;;7.22;6.30;;;18.40;98.80;;;;;;3578907;40;20041;-86
2021/07/09 07:14:29;;;;;;;7.93;6.70;;;18.40;98.60;;;;;;3582474;40;20237;-84
2021/07/09 07:16:55;;;;;;;8.07;6.60;;;18.50;98.50;;;;;;3585828;40;20048;-84
2021/07/09 07:19:21;;;;;;;9.13;7.00;;;18.60;98.50;;;;;;3587984;40;20387;-81
2021/07/09 07:21:47;;;;;;;7.60;6.55;;;18.80;98.60;;;;;;3588945;40;20328;-83
2021/07/09 07:24:12;;;;;;;7.97;6.80;;;19.10;98.40;;;;;;3589000;40;20047;-85
2021/07/09 07:26:38;;;;;;;7.32;6.45;;;19.30;98.30;;;;;;3587038;40;20060;-83
2021/07/09 07:29:04;;;;;;;8.75;6.88;;;19.50;98.00;;;;;;3575895;40;20080;-82
2021/07/09 07:31:30;;;;;;;6.55;5.95;;;19.50;98.10;;;;;;3582694;40;20049;-84
2021/07/09 07:33:56;;;;;;;5.72;5.13;;;19.70;97.60;;;;;;3591276;40;20043;-86
2021/07/09 07:36:22;;;;;;;9.35;6.25;;;19.90;97.50;;;;;;3587432;40;20040;-85
2021/07/09 07:38:48;;;;;;;5.80;5.03;;;20.00;96.60;;;;;;3582151;40;20052;-84
2021/07/09 07:41:15;;;;;;;6.18;5.13;;;19.90;96.70;;;;;;3586319;40;20141;-84
2021/07/09 07:43:45;;;;;;;4.68;4.25;;;19.70;96.50;;;;;;3583630;40;20131;-83
2021/07/09 07:46:11;;;;;;;6.07;5.47;;;19.70;96.80;;;;;;3585375;40;20053;-83
2021/07/09 07:48:37;;;;;;;6.05;5.43;;;19.60;96.90;;;;;;3575424;40;20036;-83
2021/07/09 07:51:03;;;;;;;6.78;5.88;;;19.50;97.10;;;;;;3592497;40;20047;-86
2021/07/09 07:53:34;;;;;;;6.10;5.00;;;19.80;97.50;;;;;;3581202;40;20301;-83
2021/07/09 07:56:03;;;;;;;5.45;4.95;;;20.00;97.00;;;;;;3617171;22;20101;-82
2021/07/09 07:58:29;;;;;;;6.15;5.10;;;20.10;96.90;;;;;;3609261;22;20041;-82
2021/07/09 08:00:58;;;;;;;5.75;5.10;;;20.20;96.50;;;;;;3586741;40;20091;-83
2021/07/09 08:03:24;;;;;;;7.85;5.65;;;20.20;96.40;;;;;;3590744;40;20526;-87
2021/07/09 08:08:15;;;;;;;6.20;5.65;;;20.10;96.30;;;;;;3613466;23;20047;-87
2021/07/09 08:10:41;;;;;;;5.63;4.32;;;20.00;96.40;;;;;;3598949;40;20427;-86
2021/07/09 08:13:08;;;;;;;7.38;5.93;;;19.80;95.90;;;;;;3590536;40;20044;-85
2021/07/09 08:15:34;;;;;;;5.20;4.72;;;19.50;96.30;;;;;;3603063;39;20033;-82
2021/07/09 08:18:00;;;;;;;6.18;5.60;;;19.30;96.50;;;;;;3602801;40;20021;-84
2021/07/09 08:20:28;;;;;;;6.68;5.68;;;19.40;96.90;;;;;;3619067;23;20072;-82
2021/07/09 08:22:54;;;;;;;6.18;5.55;;;19.40;96.90;;;;;;3619065;22;20115;-86
2021/07/09 08:25:20;;;;;;;5.70;5.00;;;19.50;96.60;;;;;;3611357;23;20051;-83
2021/07/09 08:27:46;;;;;;;6.68;4.78;;;19.50;96.70;;;;;;3592771;40;20630;-86
2021/07/09 08:30:13;;;;;;;7.20;5.75;;;19.50;96.10;;;;;;3596741;40;20366;-91
2021/07/09 08:32:40;;;;;;;6.30;5.30;;;19.40;96.40;;;;;;3616606;22;20309;-84
2021/07/09 08:35:06;;;;;;;6.05;5.40;;;19.30;96.30;;;;;;3577938;40;20035;-82
2021/07/09 08:37:37;;;;;;;6.90;6.32;;;19.20;96.80;;;;;;3626355;23;20039;-82
2021/07/09 08:40:09;;;;;;;6.57;5.35;;;19.20;96.60;;;;;;3674574;22;20028;-82
2021/07/09 08:42:37;;;;;;;6.55;5.72;;;19.30;96.20;;;;;;3565205;40;20087;-84
2021/07/09 08:45:08;;;;;;;7.10;6.40;;;19.30;96.30;;;;;;3573620;40;20029;-82
2021/07/09 08:47:35;;;;;;;6.95;5.82;;;19.30;96.50;;;;;;3611619;22;20036;-82
2021/07/09 08:50:07;;;;;;;5.90;4.97;;;19.30;96.40;;;;;;3601708;40;20057;-82
2021/07/09 08:52:36;;;;;;;7.07;5.97;;;19.30;96.10;;;;;;3616284;23;20036;-88
2021/07/09 08:55:13;;;;;;;8.88;7.07;;;19.30;95.90;;;;;;3633061;22;20328;-84
2021/07/09 08:57:43;;;;;;;5.43;4.80;;;19.20;96.10;;;;;;3594878;40;20033;-84
2021/07/09 09:00:39;;;;;;;6.20;5.60;;;19.30;96.50;;;;;;3582550;40;20083;-89
2021/07/09 09:03:22;;;;;;;6.35;5.68;;;19.30;95.20;;;;;;3631200;23;20065;-81
2021/07/09 09:05:48;;;;;;;;;;;19.40;95.60;;;;;;3725513;23;20040;-82
2021/07/09 09:08:23;;;;;;;6.85;6.15;;;19.50;94.40;;;;;;3632189;22;19932;-81
2021/07/09 09:10:56;;;;;;;6.28;5.72;;;19.50;95.80;;;;;;3644938;22;20120;-83
2021/07/09 09:13:35;;;;;;;7.00;6.30;;;19.60;96.30;;;;;;3697385;22;20040;-81
2021/07/09 09:16:15;;;;;;;6.13;5.50;;;19.70;96.20;;;;;;3646620;22;20117;-81
2021/07/09 09:18:43;;;;;;;6.47;5.43;;;19.90;95.80;;;;;;3618241;39;20034;-81
2021/07/09 09:21:17;;;;;;;6.25;5.75;;;20.10;96.00;;;;;;3618247;39;20246;-83
2021/07/09 09:23:52;;;;;;;5.47;5.05;;;20.30;94.90;;;;;;3631113;39;20746;-83
2021/07/09 09:26:45;;;;;;;6.85;5.90;;;20.40;94.40;;;;;;3617957;39;20076;-86
2021/07/09 09:29:35;;;;;;;6.75;5.18;;;20.40;92.60;;;;;;3640794;22;20035;-83
2021/07/09 09:32:07;;;;;;;4.63;4.15;;;20.50;93.40;;;;;;3615551;39;20061;-82
2021/07/09 09:34:41;;;;;;;5.88;5.22;;;20.50;93.20;;;;;;3616461;39;20135;-82
2021/07/09 09:37:08;;;;;;;5.82;5.43;;;20.50;93.90;;;;;;3618599;39;20105;-82
2021/07/09 09:39:34;;;;;;;4.68;4.30;;;20.30;94.80;;;;;;3632346;39;20050;-84
2021/07/09 09:42:23;;;;;;;6.10;5.05;;;20.50;94.40;;;;;;3627415;39;20380;-89
2021/07/09 09:45:03;;;;;;;5.93;5.25;;;20.70;92.70;;;;;;3638882;22;20047;-87
2021/07/09 09:47:34;;;;;;;4.88;4.47;;;20.90;93.50;;;;;;3598710;39;20333;-85
2021/07/09 09:50:05;;;;;;;6.05;4.43;;;21.10;92.50;;;;;;3610944;39;20032;-87
2021/07/09 09:52:41;;;;;;;5.20;4.53;;;21.20;92.90;;;;;;3620092;39;20036;-87
2021/07/09 09:55:19;;;;;;;5.13;4.63;;;21.10;92.40;;;;;;3600955;40;20041;-91
2021/07/09 09:57:46;;;;;;;3.90;3.50;;;21.10;94.10;;;;;;3602820;39;20051;-88
2021/07/09 10:00:20;;;;;;;6.00;4.25;;;21.20;93.50;;;;;;3611874;39;20036;-86
2021/07/09 10:02:48;;;;;;;4.65;4.25;;;21.10;93.30;;;;;;3595514;40;20036;-82
2021/07/09 10:05:14;;;;;;;5.00;4.60;;;21.20;94.30;;;;;;3609837;39;20040;-88
2021/07/09 10:07:41;;;;;;;9.48;5.55;;;21.30;93.50;;;;;;3630270;22;20039;-84
2021/07/09 10:10:09;;;;;;;5.68;4.45;;;21.30;93.70;;;;;;3624554;39;20046;-88
2021/07/09 10:12:38;;;;;;;5.32;4.88;;;21.40;93.70;;;;;;3615746;39;20035;-83
2021/07/09 10:15:05;;;;;;;5.25;4.85;;;21.50;92.90;;;;;;3688513;22;20618;-83
2021/07/09 10:17:34;;;;;;;5.10;4.70;;;21.40;93.50;;;;;;3600975;40;20047;-84
2021/07/09 10:20:03;;;;;;;4.68;4.38;;;21.40;92.90;;;;;;3611055;39;20024;-84
2021/07/09 10:22:29;;;;;;;4.20;3.90;;;21.60;93.70;;;;;;3607729;40;20051;-83
2021/07/09 10:24:55;;;;;;;6.38;5.18;;;21.60;91.60;;;;;;3607448;22;20052;-86
2021/07/09 10:27:23;;;;;;;5.25;4.75;;;21.40;92.70;;;;;;3590077;40;20049;-90
2021/07/09 10:29:50;;;;;;;5.35;4.78;;;21.10;92.80;;;;;;3589995;40;20044;-91
2021/07/09 10:32:37;;;;;;;3.55;3.30;;;21.10;93.50;;;;;;3589619;40;20367;-88
2021/07/09 10:35:08;;;;;;;6.28;5.68;;;21.10;89.60;;;;;;3593735;40;20033;-90
2021/07/09 10:37:36;;;;;;;5.53;4.97;;;20.90;93.10;;;;;;3612031;22;20049;-88
2021/07/09 10:40:09;;;;;;;6.15;4.78;;;20.80;93.50;;;;;;3616102;39;20071;-85
2021/07/09 10:42:40;;;;;;;7.25;4.55;;;20.70;92.90;;;;;;3629798;39;20099;-88
2021/07/09 10:45:18;;;;;;;5.55;5.05;;;20.80;92.30;;;;;;3631363;39;20022;-85
2021/07/09 10:47:45;;;;;;;6.10;5.50;;;20.80;93.60;;;;;;3628662;22;20033;-86
2021/07/09 10:50:33;;;;;;;5.32;4.68;;;21.10;93.20;;;;;;3595425;40;20074;-86
2021/07/09 10:53:09;;;;;;;4.97;4.28;;;21.40;93.10;;;;;;3603882;39;20436;-84
2021/07/09 10:55:45;;;;;;;5.88;5.10;;;21.30;90.70;;;;;;3598031;39;20714;-86
2021/07/09 10:58:19;;;;;;;5.07;4.63;;;21.10;92.40;;;;;;3606773;23;20046;-88
2021/07/09 11:00:58;;;;;;;5.50;4.45;;;21.10;92.70;;;;;;3620061;39;20232;-87
2021/07/09 11:03:31;;;;;;;4.30;4.00;;;21.00;92.60;;;;;;3623119;23;20036;-87
2021/07/09 11:06:36;;;;;;;5.50;4.57;;;20.90;92.80;;;;;;3630514;22;20061;-88
2021/07/09 11:09:11;;;;;;;4.32;3.92;;;20.70;89.70;;;;;;3624870;22;20046;-87
2021/07/09 11:11:47;;;;;;;4.57;4.18;;;20.60;91.80;;;;;;3616314;23;20036;-86
2021/07/09 11:14:15;;;;;;;6.00;3.78;;;20.50;92.10;;;;;;3607618;23;20105;-87
2021/07/09 11:16:44;;;;;;;6.07;4.30;;;20.60;92.60;;;;;;3586107;40;20048;-90
2021/07/09 11:19:11;;;;;;;4.57;3.92;;;20.80;93.20;;;;;;3594537;40;20040;-87
2021/07/09 11:21:37;;;;;;;3.45;3.15;;;20.90;92.50;;;;;;3596248;40;20048;-86
2021/07/09 11:24:04;;;;;;;5.20;4.80;;;20.90;92.90;;;;;;3603223;40;20036;-88
2021/07/09 11:26:35;;;;;;;4.78;4.20;;;20.80;92.70;;;;;;3603698;39;20091;-88
2021/07/09 11:29:29;;;;;;;6.70;4.07;;;20.80;92.90;;;;;;3645600;22;20496;-89
2021/07/09 11:32:04;;;;;;;3.67;3.38;;;21.00;91.90;;;;;;3599507;40;20036;-87
2021/07/09 11:34:39;;;;;;;4.80;4.40;;;21.00;90.90;;;;;;3602349;40;20040;-86
2021/07/09 11:37:08;;;;;;;3.90;3.53;;;20.80;92.20;;;;;;3616595;22;20040;-89
2021/07/09 11:39:37;;;;;;;5.13;4.72;;;20.80;92.90;;;;;;3596147;40;20117;-86
2021/07/09 11:42:14;;;;;;;4.35;3.95;;;20.90;93.10;;;;;;3577839;40;20053;-89
2021/07/09 11:44:48;;;;;;;4.97;4.50;;;21.10;91.30;;;;;;3586186;40;20040;-89
2021/07/09 11:47:17;;;;;;;3.90;3.70;;;21.00;92.00;;;;;;3585679;40;20045;-88
2021/07/09 11:49:54;;;;;;;4.05;3.72;;;20.90;91.90;;;;;;3585628;40;20041;-87
2021/07/09 11:52:23;;;;;;;8.32;5.03;;;20.80;91.40;;;;;;3601267;23;20060;-87
2021/07/09 11:54:51;;;;;;;5.30;3.75;;;20.60;92.50;;;;;;3594562;40;20098;-89
2021/07/09 11:57:21;;;;;;;5.80;4.53;;;20.50;92.50;;;;;;3624132;22;20035;-86
2021/07/09 11:59:49;;;;;;;4.63;4.18;;;20.40;92.40;;;;;;3617011;23;20076;-84
2021/07/09 12:02:18;;;;;;;4.65;4.25;;;20.40;92.60;;;;;;3629630;23;20064;-89
2021/07/09 12:04:49;;;;;;;5.18;4.68;;;20.30;92.60;;;;;;3649960;23;20068;-85
2021/07/09 12:07:35;;;;;;;5.38;4.90;;;20.30;92.60;;;;;;3609765;40;20035;-87
2021/07/09 12:10:07;;;;;;;5.90;5.32;;;20.40;91.00;;;;;;3621509;23;20028;-87
2021/07/09 12:12:38;;;;;;;5.28;4.70;;;20.30;92.50;;;;;;3650026;22;20040;-90
2021/07/09 12:15:10;;;;;;;5.05;4.57;;;20.40;92.30;;;;;;3605987;39;20035;-87
2021/07/09 12:17:44;;;;;;;4.75;4.35;;;20.50;91.80;;;;;;3613215;22;20052;-86
2021/07/09 12:20:12;;;;;;;4.35;4.00;;;20.50;91.20;;;;;;3611195;22;20040;-83
2021/07/09 12:23:01;;;;;;;5.85;4.70;;;20.60;92.30;;;;;;3590952;40;20105;-84
2021/07/09 12:25:35;;;;;;;5.03;4.50;;;20.70;92.20;;;;;;3600954;39;20114;-89
2021/07/09 12:28:11;;;;;;;3.92;3.63;;;21.00;92.80;;;;;;3619809;23;20044;-86
2021/07/09 12:30:40;;;;;;;4.22;3.80;;;21.30;92.30;;;;;;3612818;39;20036;-88
2021/07/09 12:33:12;;;;;;;4.15;3.85;;;21.50;91.80;;;;;;3609170;39;20331;-88
2021/07/09 12:35:38;;;;;;;5.38;4.88;;;21.50;92.00;;;;;;3608696;39;20043;-89
2021/07/09 12:38:10;;;;;;;5.75;5.20;;;21.50;92.10;;;;;;3637873;22;20039;-87
2021/07/09 12:40:47;;;;;;;4.50;4.10;;;21.60;91.70;;;;;;3608696;39;20051;-88
2021/07/09 12:43:16;;;;;;;4.28;3.85;;;21.50;89.40;;;;;;3582799;40;20034;-89
2021/07/09 12:45:53;;;;;;;5.63;4.18;;;21.50;90.90;;;;;;3610217;39;20069;-90